Time;durP1;ratioP1;P1;durP2;ratioP2;P2;SDS_P1;SDS_P2;PMS_P1;PMS_P2;Temp;Humidity;BMP_temperature;BMP_pressure;BME280_temperature;BME280_humidity;BME280_pressure;Samples;Min_cycle;Max_cycle;Signal;HPM_P1;HPM_P2
2024/04/06 00:00:08;;;;;;;2.40;2.20;;;;;;;12.50;100.00;100827.44;5046849;28;20249;-73
2024/04/06 00:02:38;;;;;;;2.40;2.20;;;;;;;12.47;100.00;100823.59;5047124;28;20207;-73
2024/04/06 00:05:04;;;;;;;2.50;2.00;;;;;;;12.43;100.00;100832.53;5048509;28;20472;-73
2024/04/06 00:07:30;;;;;;;2.17;2.00;;;;;;;12.41;100.00;100832.06;5044181;28;20278;-73
2024/04/06 00:09:55;;;;;;;3.77;2.23;;;;;;;12.38;100.00;100824.81;5030671;28;20199;-72
2024/04/06 00:12:22;;;;;;;2.67;1.73;;;;;;;12.34;100.00;100829.22;5046895;28;20221;-73
2024/04/06 00:14:47;;;;;;;2.30;2.10;;;;;;;12.30;100.00;100834.41;5033549;28;20195;-73
2024/04/06 00:17:15;;;;;;;3.60;2.17;;;;;;;12.26;100.00;100822.16;5047753;28;20553;-72
2024/04/06 00:19:40;;;;;;;2.63;2.00;;;;;;;12.23;100.00;100822.81;5042427;28;20221;-72
2024/04/06 00:22:07;;;;;;;3.47;2.03;;;;;;;12.20;100.00;100826.88;5050462;28;20662;-73
2024/04/06 00:24:32;;;;;;;4.17;2.10;;;;;;;12.18;100.00;100830.97;5041815;28;20195;-72
2024/04/06 00:27:01;;;;;;;5.07;2.20;;;;;;;12.16;100.00;100826.00;5044955;28;20222;-73
2024/04/06 00:29:26;;;;;;;2.67;2.27;;;;;;;12.15;100.00;100829.75;5049358;28;20569;-73
2024/04/06 00:31:52;;;;;;;2.90;2.07;;;;;;;12.14;100.00;100830.06;5045688;28;20207;-73
2024/04/06 00:34:19;;;;;;;4.90;2.20;;;;;;;12.13;100.00;100824.03;5053137;28;20204;-73
2024/04/06 00:36:46;;;;;;;3.70;2.20;;;;;;;12.11;100.00;100822.81;5052177;28;20540;-73
2024/04/06 00:39:11;;;;;;;3.07;2.23;;;;;;;12.11;100.00;100828.84;5049473;28;20202;-73
2024/04/06 00:41:38;;;;;;;2.50;2.20;;;;;;;12.11;100.00;100825.44;5031214;28;20215;-73
2024/04/06 00:44:04;;;;;;;3.03;2.17;;;;;;;12.09;100.00;100823.13;5053049;28;20585;-73
2024/04/06 00:46:30;;;;;;;5.73;2.20;;;;;;;12.10;100.00;100829.97;5037830;28;20237;-72
2024/04/06 00:48:55;;;;;;;3.20;2.20;;;;;;;12.09;100.00;100831.06;5049603;28;20691;-73
2024/04/06 00:51:23;;;;;;;2.60;2.20;;;;;;;12.08;100.00;100826.88;5051827;28;20191;-73
2024/04/06 00:53:48;;;;;;;4.73;2.40;;;;;;;12.06;100.00;100831.72;5052030;28;20194;-72
2024/04/06 00:56:15;;;;;;;6.10;2.30;;;;;;;12.05;100.00;100837.34;5048186;28;20219;-73
2024/04/06 00:58:41;;;;;;;4.20;2.20;;;;;;;12.01;100.00;100833.81;5051111;28;20222;-72
2024/04/06 01:01:08;;;;;;;3.77;3.00;;;;;;;12.01;100.00;100831.16;5029735;28;20634;-72
2024/04/06 01:03:33;;;;;;;3.63;2.30;;;;;;;11.97;100.00;100831.06;5049967;28;20213;-73
2024/04/06 01:05:59;;;;;;;2.90;2.30;;;;;;;11.96;100.00;100836.66;5050265;28;20211;-73
2024/04/06 01:08:29;;;;;;;3.03;2.50;;;;;;;11.95;100.00;100827.19;5034076;28;20222;-72
2024/04/06 01:10:56;;;;;;;4.27;2.50;;;;;;;11.94;100.00;100826.41;5050138;28;20192;-73
2024/04/06 01:13:22;;;;;;;3.97;2.40;;;;;;;11.92;100.00;100822.53;5047594;28;20275;-73
2024/04/06 01:15:48;;;;;;;3.50;2.30;;;;;;;11.91;100.00;100821.75;5053579;28;20275;-73
2024/04/06 01:18:14;;;;;;;3.23;2.40;;;;;;;11.90;100.00;100830.81;5049478;28;20222;-72
2024/04/06 01:20:43;;;;;;;4.13;2.30;;;;;;;11.89;100.00;100831.91;5031392;28;20207;-73
2024/04/06 01:23:11;;;;;;;3.80;2.50;;;;;;;11.87;100.00;100834.13;5050447;28;20253;-72
2024/04/06 01:25:41;;;;;;;2.53;2.33;;;;;;;11.86;100.00;100831.78;5050542;28;20215;-72
2024/04/06 01:28:06;;;;;;;2.60;2.37;;;;;;;11.84;100.00;100831.34;5047002;28;20199;-72
2024/04/06 01:30:32;;;;;;;5.77;2.90;;;;;;;11.82;100.00;100841.47;5046158;28;20209;-73
2024/04/06 01:32:59;;;;;;;4.13;2.30;;;;;;;11.80;100.00;100833.09;5048520;28;20209;-73
2024/04/06 01:35:24;;;;;;;4.07;2.33;;;;;;;11.77;100.00;100834.53;5050795;28;20227;-71
2024/04/06 01:37:50;;;;;;;4.87;2.30;;;;;;;11.76;100.00;100834.84;5054900;28;20212;-72
2024/04/06 01:40:16;;;;;;;4.93;2.50;;;;;;;11.73;100.00;100841.56;5051469;28;20201;-72
2024/04/06 01:42:44;;;;;;;4.57;2.83;;;;;;;11.72;100.00;100841.88;5048020;28;20199;-72
2024/04/06 01:45:09;;;;;;;4.70;2.40;;;;;;;11.69;100.00;100839.91;5046911;28;20202;-72
2024/04/06 01:47:36;;;;;;;2.77;2.20;;;;;;;11.67;100.00;100845.53;5049226;28;20209;-73
2024/04/06 01:50:04;;;;;;;4.67;2.40;;;;;;;11.66;100.00;100851.91;5053155;28;20191;-72
2024/04/06 01:52:31;;;;;;;3.40;2.20;;;;;;;11.64;100.00;100853.34;5051996;28;20195;-72
2024/04/06 01:54:57;;;;;;;5.37;2.77;;;;;;;11.63;100.00;100862.34;5050107;28;20194;-72
2024/04/06 01:57:24;;;;;;;2.53;2.03;;;;;;;11.60;100.00;100861.13;5048603;28;20566;-73
2024/04/06 01:59:50;;;;;;;2.63;2.43;;;;;;;11.59;100.00;100867.53;5048722;28;20207;-73
2024/04/06 02:02:17;;;;;;;3.33;2.30;;;;;;;11.57;100.00;100869.69;5050016;28;20302;-73
2024/04/06 02:04:46;;;;;;;2.27;2.07;;;;;;;11.55;100.00;100866.59;5052558;28;20669;-73
2024/04/06 02:07:12;;;;;;;3.47;2.43;;;;;;;11.52;100.00;100864.59;5048264;28;20217;-73
2024/04/06 02:09:37;;;;;;;2.80;2.40;;;;;;;11.49;100.00;100865.25;5052904;28;20202;-72
2024/04/06 02:12:04;;;;;;;5.50;2.80;;;;;;;11.49;100.00;100878.47;5051793;28;20592;-72
2024/04/06 02:14:29;;;;;;;2.40;2.20;;;;;;;11.45;100.00;100874.91;5037016;28;20202;-73
2024/04/06 02:16:59;;;;;;;2.87;2.40;;;;;;;11.43;100.00;100882.41;5054206;28;20224;-73
2024/04/06 02:19:24;;;;;;;3.63;2.20;;;;;;;11.41;100.00;100892.53;5046769;28;20260;-73
2024/04/06 02:21:53;;;;;;;2.60;2.20;;;;;;;11.39;100.00;100892.06;5047955;28;20202;-71
2024/04/06 02:24:20;;;;;;;3.57;2.53;;;;;;;11.35;100.00;100891.19;5048030;28;20200;-72
2024/04/06 02:26:46;;;;;;;3.93;2.77;;;;;;;11.32;100.00;100886.53;5047498;28;20249;-73
2024/04/06 02:29:13;;;;;;;6.20;3.00;;;;;;;11.31;100.00;100889.50;5057500;28;20195;-72
2024/04/06 02:31:39;;;;;;;3.03;2.10;;;;;;;11.27;100.00;100876.16;5047639;28;20191;-73
2024/04/06 02:34:06;;;;;;;2.50;2.30;;;;;;;11.24;100.00;100884.72;5049520;28;20205;-73
2024/04/06 02:36:35;;;;;;;3.20;2.57;;;;;;;11.22;100.00;100886.91;5031608;28;20313;-73
2024/04/06 02:39:01;;;;;;;6.50;4.20;;;;;;;11.18;100.00;100886.00;5048217;28;20453;-73
2024/04/06 02:41:26;;;;;;;3.00;2.63;;;;;;;11.15;100.00;100889.31;5050402;28;20827;-73
2024/04/06 02:43:53;;;;;;;3.57;2.70;;;;;;;11.10;100.00;100886.84;5055003;28;20196;-72
2024/04/06 02:46:18;;;;;;;2.97;2.67;;;;;;;11.06;100.00;100885.94;5049661;28;20232;-73
2024/04/06 02:48:44;;;;;;;2.57;2.10;;;;;;;11.03;100.00;100888.44;5039995;28;20210;-75
2024/04/06 02:51:11;;;;;;;3.67;2.53;;;;;;;11.00;100.00;100886.44;5050011;28;20202;-73
2024/04/06 02:53:37;;;;;;;3.07;2.37;;;;;;;10.95;100.00;100886.63;5047879;28;20205;-72
2024/04/06 02:56:04;;;;;;;6.80;2.50;;;;;;;10.92;100.00;100887.28;5050003;28;20702;-72
2024/04/06 02:58:33;;;;;;;4.07;2.60;;;;;;;10.88;100.00;100886.38;5046115;28;20722;-72
2024/04/06 03:00:58;;;;;;;3.30;2.53;;;;;;;10.83;100.00;100889.97;5051448;28;20263;-72
2024/04/06 03:03:25;;;;;;;4.77;2.80;;;;;;;10.80;100.00;100889.81;5048071;28;20237;-73
2024/04/06 03:05:50;;;;;;;2.83;2.53;;;;;;;10.75;100.00;100885.50;5047899;28;20217;-73
2024/04/06 03:08:18;;;;;;;2.93;2.63;;;;;;;10.72;100.00;100888.00;5049638;28;20200;-73
2024/04/06 03:10:43;;;;;;;2.97;2.40;;;;;;;10.69;100.00;100878.06;5047437;28;20200;-73
2024/04/06 03:13:09;;;;;;;6.23;2.70;;;;;;;10.67;100.00;100880.25;5052335;28;20564;-73
2024/04/06 03:15:35;;;;;;;6.20;2.80;;;;;;;10.64;100.00;100881.66;5057032;28;20225;-72
2024/04/06 03:18:01;;;;;;;3.77;2.80;;;;;;;10.62;100.00;100886.47;5047519;28;20201;-73
2024/04/06 03:20:27;;;;;;;4.53;2.43;;;;;;;10.61;100.00;100886.81;5044773;28;20223;-72
2024/04/06 03:23:01;;;;;;;5.13;2.97;;;;;;;10.60;100.00;100885.25;5052276;28;20195;-75
2024/04/06 03:25:28;;;;;;;3.03;2.63;;;;;;;10.59;100.00;100881.06;5047472;28;20314;-75
2024/04/06 03:27:54;;;;;;;4.00;2.83;;;;;;;10.58;100.00;100885.59;5047952;28;20199;-73
2024/04/06 03:30:20;;;;;;;3.30;2.57;;;;;;;10.58;100.00;100879.50;5035141;28;20197;-73
2024/04/06 03:32:46;;;;;;;3.07;2.77;;;;;;;10.58;100.00;100877.66;5052221;28;20209;-73
2024/04/06 03:35:13;;;;;;;3.57;2.83;;;;;;;10.57;100.00;100870.81;5050057;28;20200;-73
2024/04/06 03:37:41;;;;;;;3.57;2.93;;;;;;;10.58;100.00;100877.66;5046687;28;20277;-73
2024/04/06 03:40:09;;;;;;;3.80;2.90;;;;;;;10.60;100.00;100887.88;5048262;28;20263;-72
2024/04/06 03:42:38;;;;;;;4.70;2.87;;;;;;;10.60;100.00;100874.69;5049505;28;20599;-73
2024/04/06 03:45:06;;;;;;;4.73;3.07;;;;;;;10.61;100.00;100892.09;5049872;28;20654;-72
2024/04/06 03:47:31;;;;;;;5.27;3.30;;;;;;;10.61;100.00;100889.47;5049109;28;20205;-72
2024/04/06 03:49:57;;;;;;;3.60;3.00;;;;;;;10.61;100.00;100884.19;5052756;28;20543;-73
2024/04/06 03:52:24;;;;;;;3.43;2.90;;;;;;;10.63;100.00;100888.03;5049637;28;20208;-73
2024/04/06 03:54:50;;;;;;;4.30;3.17;;;;;;;10.64;100.00;100892.22;5050418;28;20223;-73
2024/04/06 03:57:16;;;;;;;5.03;3.07;;;;;;;10.65;100.00;100879.78;5051902;28;20622;-73
2024/04/06 03:59:44;;;;;;;5.00;3.00;;;;;;;10.65;100.00;100879.78;5041514;28;20205;-73
2024/04/06 04:02:09;;;;;;;3.27;2.83;;;;;;;10.66;100.00;100889.28;5045377;28;20208;-73
2024/04/06 04:04:36;;;;;;;4.87;3.00;;;;;;;10.66;100.00;100894.56;5045643;28;20526;-73
2024/04/06 04:07:01;;;;;;;6.20;3.20;;;;;;;10.65;100.00;100893.00;5057161;28;20588;-73
2024/04/06 04:09:28;;;;;;;4.23;3.33;;;;;;;10.65;100.00;100895.63;5057182;28;20244;-75
2024/04/06 04:11:53;;;;;;;4.67;3.20;;;;;;;10.64;100.00;100899.38;5052903;28;20207;-73
2024/04/06 04:14:19;;;;;;;3.77;3.23;;;;;;;10.64;100.00;100899.38;5055378;28;20192;-73
2024/04/06 04:16:47;;;;;;;3.90;3.30;;;;;;;10.62;100.00;100901.56;5057961;28;20588;-72
2024/04/06 04:19:13;;;;;;;5.53;3.53;;;;;;;10.61;100.00;100907.94;5038266;28;20298;-75
2024/04/06 04:21:38;;;;;;;4.10;3.60;;;;;;;10.59;100.00;100908.25;5046712;28;20213;-73
2024/04/06 04:24:05;;;;;;;4.33;3.00;;;;;;;10.58;100.00;100912.00;5034758;28;20195;-73
2024/04/06 04:26:31;;;;;;;5.50;3.43;;;;;;;10.56;100.00;100911.50;5054828;28;20226;-73
2024/04/06 04:28:57;;;;;;;5.97;3.63;;;;;;;10.53;100.00;100906.09;5054362;28;20204;-73
2024/04/06 04:31:22;;;;;;;6.17;3.57;;;;;;;10.50;100.00;100904.88;5054845;28;20203;-73
2024/04/06 04:33:50;;;;;;;4.17;3.73;;;;;;;10.47;100.00;100904.72;5055680;28;20205;-72
2024/04/06 04:36:15;;;;;;;4.50;3.37;;;;;;;10.43;100.00;100904.59;5054877;28;20219;-73
2024/04/06 04:38:42;;;;;;;3.10;2.80;;;;;;;10.41;100.00;100913.91;5050521;28;20686;-73
2024/04/06 04:41:07;;;;;;;6.60;3.33;;;;;;;10.39;100.00;100911.59;5054335;28;20276;-73
2024/04/06 04:43:34;;;;;;;5.77;3.20;;;;;;;10.37;100.00;100913.78;5047429;28;20210;-73
2024/04/06 04:45:59;;;;;;;4.83;3.10;;;;;;;10.36;100.00;100906.16;5050113;28;20298;-73
2024/04/06 04:48:26;;;;;;;6.50;3.27;;;;;;;10.36;100.00;100914.09;5055095;28;20210;-73
2024/04/06 04:50:52;;;;;;;5.23;3.37;;;;;;;10.36;100.00;100912.19;5032039;28;20201;-73
2024/04/06 04:53:19;;;;;;;11.37;3.87;;;;;;;10.36;100.00;100906.91;5053746;28;20283;-73
2024/04/06 04:55:44;;;;;;;6.57;3.70;;;;;;;10.37;100.00;100916.41;5034561;28;20216;-73
2024/04/06 04:58:11;;;;;;;5.80;3.43;;;;;;;10.39;100.00;100916.88;5059267;28;20191;-73
2024/04/06 05:00:36;;;;;;;6.30;4.30;;;;;;;10.40;100.00;100923.69;5050714;28;20225;-73
2024/04/06 05:03:02;;;;;;;8.53;4.10;;;;;;;10.42;100.00;100929.44;5055529;28;20195;-73
2024/04/06 05:05:28;;;;;;;8.60;4.03;;;;;;;10.46;100.00;100922.41;5037359;28;20233;-73
2024/04/06 05:07:56;;;;;;;4.10;3.70;;;;;;;10.50;100.00;100925.22;5051016;28;20681;-73
2024/04/06 05:10:21;;;;;;;4.47;3.80;;;;;;;10.55;100.00;100923.16;5046645;28;20199;-73
2024/04/06 05:12:47;;;;;;;5.87;4.13;;;;;;;10.58;100.00;100927.84;5054221;28;20196;-72
2024/04/06 05:15:13;;;;;;;5.10;4.00;;;;;;;10.64;100.00;100937.13;5054100;28;20569;-73
2024/04/06 05:17:39;;;;;;;6.33;4.03;;;;;;;10.67;100.00;100936.47;5052411;28;20197;-73
2024/04/06 05:20:05;;;;;;;4.57;3.90;;;;;;;10.74;100.00;100933.34;5052010;28;20229;-73
2024/04/06 05:22:32;;;;;;;5.37;4.40;;;;;;;10.81;100.00;100944.22;5050963;28;20200;-74
2024/04/06 05:24:58;;;;;;;4.37;3.90;;;;;;;10.88;100.00;100939.97;5055393;28;20193;-72
2024/04/06 05:27:26;;;;;;;5.40;4.17;;;;;;;10.95;100.00;100937.59;5056608;28;20696;-73
2024/04/06 05:29:51;;;;;;;7.67;4.43;;;;;;;11.05;100.00;100941.75;5050201;28;20276;-72
2024/04/06 05:32:17;;;;;;;6.20;4.50;;;;;;;11.14;100.00;100939.84;5056703;28;20193;-73
2024/04/06 05:34:43;;;;;;;8.67;5.00;;;;;;;11.25;100.00;100941.81;5049807;28;20691;-73
2024/04/06 05:37:09;;;;;;;9.50;4.83;;;;;;;11.34;100.00;100947.03;5054784;28;20214;-73
2024/04/06 05:39:35;;;;;;;7.77;5.20;;;;;;;11.43;100.00;100945.88;5052927;28;20225;-72
2024/04/06 05:42:03;;;;;;;9.67;5.33;;;;;;;11.53;100.00;100958.72;5055388;28;20191;-72
2024/04/06 05:44:29;;;;;;;9.67;6.13;;;;;;;11.62;100.00;100948.88;5051639;28;20200;-72
2024/04/06 05:46:55;;;;;;;6.97;5.07;;;;;;;11.71;100.00;100960.19;5050984;28;20238;-72
2024/04/06 05:49:21;;;;;;;7.13;5.30;;;;;;;11.82;100.00;100963.97;5050524;28;20195;-73
2024/04/06 05:51:47;;;;;;;5.43;4.20;;;;;;;11.90;100.00;100965.00;5048401;28;20192;-73
2024/04/06 05:54:13;;;;;;;5.50;4.23;;;;;;;11.99;100.00;100965.69;5051015;28;21079;-73
2024/04/06 05:56:40;;;;;;;4.10;3.50;;;;;;;12.07;100.00;100968.25;5059427;28;20659;-73
2024/04/06 05:59:10;;;;;;;5.57;3.70;;;;;;;12.16;100.00;100968.94;5054714;28;20207;-72
2024/04/06 06:01:36;;;;;;;3.90;2.97;;;;;;;12.25;100.00;100971.50;5054919;28;20547;-73
2024/04/06 06:04:02;;;;;;;4.83;3.20;;;;;;;12.32;100.00;100974.41;5050111;28;20250;-73
2024/04/06 06:06:28;;;;;;;5.00;3.10;;;;;;;12.40;100.00;100992.09;5052598;28;20707;-73
2024/04/06 06:08:55;;;;;;;3.60;2.67;;;;;;;12.48;100.00;100981.41;5050474;28;20187;-73
2024/04/06 06:11:20;;;;;;;4.13;3.23;;;;;;;12.55;100.00;100992.25;5032661;28;20203;-73
2024/04/06 06:13:47;;;;;;;3.30;2.33;;;;;;;12.62;100.00;100987.16;5055073;28;20264;-73
2024/04/06 06:16:13;;;;;;;3.13;2.33;;;;;;;12.72;100.00;100994.69;5045278;28;20306;-73
2024/04/06 06:18:40;;;;;;;2.47;2.00;;;;;;;12.78;100.00;100993.38;5050717;28;20231;-73
2024/04/06 06:21:06;;;;;;;2.57;2.13;;;;;;;12.87;100.00;101007.31;5052032;28;20736;-73
2024/04/06 06:23:32;;;;;;;3.73;2.00;;;;;;;12.95;100.00;101001.13;5048502;28;20192;-73
2024/04/06 06:25:58;;;;;;;2.93;1.60;;;;;;;13.05;100.00;101002.59;5032171;28;20220;-73
2024/04/06 06:28:24;;;;;;;2.33;2.00;;;;;;;13.13;100.00;100997.19;5028860;28;20234;-73
2024/04/06 06:30:49;;;;;;;3.93;2.00;;;;;;;13.22;100.00;100999.72;5048080;28;20217;-71
2024/04/06 06:33:21;;;;;;;4.60;1.80;;;;;;;13.30;100.00;100996.94;5048713;28;20227;-73
2024/04/06 06:35:51;;;;;;;3.67;1.90;;;;;;;13.39;100.00;100997.63;5048895;28;20215;-73
2024/04/06 06:38:17;;;;;;;2.27;1.77;;;;;;;13.48;100.00;101005.44;5051792;28;20881;-73
2024/04/06 06:40:43;;;;;;;2.63;1.97;;;;;;;13.52;100.00;100993.84;5052872;28;20216;-73
2024/04/06 06:43:11;;;;;;;3.93;2.03;;;;;;;13.61;100.00;101002.44;5052699;28;20197;-73
2024/04/06 06:45:37;;;;;;;1.90;1.57;;;;;;;13.68;100.00;101004.53;5025269;28;20231;-73
2024/04/06 06:48:04;;;;;;;2.73;1.50;;;;;;;13.73;100.00;101010.41;5048787;28;20199;-73
2024/04/06 06:50:31;;;;;;;3.40;1.60;;;;;;;13.77;100.00;101003.28;5045256;28;20438;-73
2024/04/06 06:53:00;;;;;;;3.17;2.13;;;;;;;13.82;100.00;100992.44;5046662;28;20202;-73
2024/04/06 06:55:25;;;;;;;3.80;1.90;;;;;;;13.87;100.00;100994.09;5050643;28;20752;-73
2024/04/06 06:57:53;;;;;;;2.40;2.10;;;;;;;13.91;100.00;100998.38;5050003;28;20210;-73
2024/04/06 07:00:18;;;;;;;2.47;1.83;;;;;;;13.99;100.00;100991.38;5046454;28;20325;-73
2024/04/06 07:02:45;;;;;;;3.17;1.87;;;;;;;14.05;100.00;100990.81;5041495;28;20191;-74
2024/04/06 07:05:10;;;;;;;3.53;1.60;;;;;;;14.12;100.00;100995.56;5048870;28;20207;-73
2024/04/06 07:07:38;;;;;;;1.90;1.60;;;;;;;14.20;100.00;100998.09;5049808;28;20195;-73
2024/04/06 07:10:04;;;;;;;4.70;1.37;;;;;;;14.30;100.00;101002.91;5044731;28;20682;-72
2024/04/06 07:12:31;;;;;;;2.47;1.70;;;;;;;14.39;100.00;101003.53;5047583;28;20202;-74
2024/04/06 07:15:05;;;;;;;2.10;1.10;;;;;;;14.47;100.00;101002.59;5049742;28;20214;-74
2024/04/06 07:17:30;;;;;;;3.00;1.47;;;;;;;14.55;100.00;101008.88;5046023;28;20289;-74
2024/04/06 07:19:59;;;;;;;3.27;1.40;;;;;;;14.65;100.00;101014.44;5050266;28;20631;-73
2024/04/06 07:22:24;;;;;;;2.20;1.10;;;;;;;14.77;100.00;101011.72;5051983;28;20684;-73
2024/04/06 07:24:52;;;;;;;2.30;1.17;;;;;;;14.86;100.00;101009.66;5040612;28;20190;-74
2024/04/06 07:27:17;;;;;;;2.50;1.23;;;;;;;14.94;100.00;101016.69;5045473;28;20246;-74
2024/04/06 07:29:44;;;;;;;1.37;0.93;;;;;;;15.05;100.00;101011.66;5027948;28;20662;-74
2024/04/06 07:32:09;;;;;;;3.17;1.20;;;;;;;15.08;100.00;101022.38;5042192;28;20203;-74
2024/04/06 07:34:37;;;;;;;3.17;1.37;;;;;;;15.19;100.00;101019.94;5042899;28;20210;-73
2024/04/06 07:37:03;;;;;;;2.37;1.30;;;;;;;15.26;100.00;101025.44;5047508;28;20219;-74
2024/04/06 07:39:29;;;;;;;2.73;1.20;;;;;;;15.35;100.00;101024.16;5046631;28;20558;-73
2024/04/06 07:41:56;;;;;;;3.23;1.43;;;;;;;15.44;100.00;101023.97;5046779;28;20607;-74
2024/04/06 07:44:23;;;;;;;2.03;1.40;;;;;;;15.59;100.00;101026.63;5048638;28;20282;-73
2024/04/06 07:46:48;;;;;;;3.50;1.40;;;;;;;15.67;100.00;101024.84;5048618;28;20230;-73
2024/04/06 07:49:15;;;;;;;5.30;1.33;;;;;;;15.76;100.00;101025.44;5042765;28;20192;-74
2024/04/06 07:51:41;;;;;;;2.67;1.30;;;;;;;15.84;100.00;101029.78;5047447;28;20218;-73
2024/04/06 07:54:08;;;;;;;3.73;1.37;;;;;;;15.95;100.00;101039.56;5046467;28;20249;-74
2024/04/06 07:56:33;;;;;;;1.67;1.10;;;;;;;16.05;100.00;101032.88;5045568;28;20744;-73
2024/04/06 07:59:01;;;;;;;3.27;1.20;;;;;;;16.13;100.00;101035.34;5048313;28;20179;-74
2024/04/06 08:01:27;;;;;;;2.13;1.40;;;;;;;16.23;100.00;101034.78;5045146;28;20233;-73
2024/04/06 08:03:53;;;;;;;2.40;1.27;;;;;;;16.30;100.00;101028.81;5041670;28;20745;-73
2024/04/06 08:06:19;;;;;;;1.60;1.10;;;;;;;16.37;100.00;101032.38;5046034;28;20218;-74
2024/04/06 08:08:46;;;;;;;2.57;1.40;;;;;;;16.48;100.00;101032.59;5047923;28;20213;-73
2024/04/06 08:11:12;;;;;;;3.43;1.00;;;;;;;16.54;100.00;101041.84;5042251;28;20310;-73
2024/04/06 08:13:38;;;;;;;5.50;1.63;;;;;;;16.63;100.00;101031.72;5026043;28;20694;-73
2024/04/06 08:16:06;;;;;;;1.20;1.10;;;;;;;16.73;100.00;101026.59;5043465;28;20219;-73
2024/04/06 08:18:32;;;;;;;1.47;1.20;;;;;;;16.79;100.00;101021.72;5036430;28;20234;-73
2024/04/06 08:20:58;;;;;;;2.53;1.40;;;;;;;16.82;100.00;101021.78;5028293;28;20230;-73
2024/04/06 08:23:24;;;;;;;2.13;1.13;;;;;;;16.88;100.00;101019.59;5044183;28;20190;-73
2024/04/06 08:25:53;;;;;;;1.70;1.30;;;;;;;16.93;100.00;101019.28;5045749;28;20236;-73
2024/04/06 08:28:19;;;;;;;2.43;1.43;;;;;;;17.00;100.00;101022.84;5049595;28;20204;-73
2024/04/06 08:30:44;;;;;;;1.30;1.10;;;;;;;17.09;100.00;101019.94;5041877;28;20197;-73
2024/04/06 08:33:12;;;;;;;4.80;1.40;;;;;;;17.19;100.00;101025.41;5043808;28;20584;-73
2024/04/06 08:35:38;;;;;;;1.40;1.13;;;;;;;17.22;100.00;101024.72;5045737;28;20228;-73
2024/04/06 08:38:05;;;;;;;2.67;1.57;;;;;;;17.29;100.00;101022.13;5029818;28;20199;-73
2024/04/06 08:40:30;;;;;;;1.53;1.13;;;;;;;17.37;100.00;101031.78;5045837;28;20219;-73
2024/04/06 08:43:02;;;;;;;1.00;0.90;;;;;;;17.47;100.00;101030.44;5044036;28;20199;-73
2024/04/06 08:45:29;;;;;;;2.27;1.13;;;;;;;17.55;100.00;101026.75;5044452;28;20707;-73
2024/04/06 08:47:56;;;;;;;2.80;1.03;;;;;;;17.62;100.00;101027.63;5025650;28;20662;-73
2024/04/06 08:50:23;;;;;;;2.40;1.27;;;;;;;17.72;100.00;101035.00;5044509;28;20510;-73
2024/04/06 08:52:50;;;;;;;2.40;1.10;;;;;;;17.77;100.00;101032.00;5050139;28;20203;-73
2024/04/06 08:55:15;;;;;;;3.57;1.50;;;;;;;17.77;100.00;101034.69;5052148;28;20720;-73
2024/04/06 08:57:41;;;;;;;2.93;1.63;;;;;;;17.79;100.00;101035.09;5048182;28;20195;-72
2024/04/06 09:00:11;;;;;;;1.67;1.30;;;;;;;17.81;100.00;101034.72;5046683;28;20217;-73
2024/04/06 09:02:38;;;;;;;2.20;1.20;;;;;;;17.83;100.00;101037.78;5047475;28;20195;-73
2024/04/06 09:05:05;;;;;;;1.83;1.23;;;;;;;17.82;100.00;101038.94;5034039;28;20210;-73
2024/04/06 09:07:33;;;;;;;1.53;1.17;;;;;;;17.83;100.00;101033.22;5052725;28;20195;-73
2024/04/06 09:09:59;;;;;;;1.30;1.10;;;;;;;17.85;100.00;101028.28;5044662;28;20860;-73
2024/04/06 09:12:26;;;;;;;1.03;0.83;;;;;;;17.85;100.00;101028.28;5045685;28;20234;-72
2024/04/06 09:14:51;;;;;;;3.27;1.27;;;;;;;17.87;100.00;101026.03;5047162;28;20223;-73
2024/04/06 09:17:21;;;;;;;4.60;1.30;;;;;;;17.90;100.00;101013.84;5047762;28;20246;-73
2024/04/06 09:19:47;;;;;;;3.40;1.00;;;;;;;17.97;100.00;101030.75;5049041;28;20229;-73
2024/04/06 09:22:13;;;;;;;1.83;1.10;;;;;;;18.09;100.00;101027.03;5044920;28;20195;-73
2024/04/06 09:24:40;;;;;;;1.67;1.00;;;;;;;18.18;100.00;101036.34;5048230;28;20590;-73
2024/04/06 09:27:08;;;;;;;2.47;1.10;;;;;;;18.33;100.00;101038.06;5047165;28;20308;-72
2024/04/06 09:29:34;;;;;;;3.03;1.10;;;;;;;18.48;100.00;101037.06;5047019;28;20198;-73
2024/04/06 09:32:03;;;;;;;2.40;1.30;;;;;;;18.64;100.00;101047.53;5051392;28;20195;-73
2024/04/06 09:34:29;;;;;;;3.50;1.30;;;;;;;18.74;100.00;101050.28;5048125;28;20200;-72
2024/04/06 09:37:03;;;;;;;3.37;2.00;;;;;;;18.83;100.00;101045.41;5048417;28;20256;-73
2024/04/06 09:39:30;;;;;;;2.37;1.30;;;;;;;18.97;100.00;101050.91;5048642;28;20627;-72
2024/04/06 09:41:59;;;;;;;0.70;0.70;;;;;;;19.10;100.00;101044.09;5046743;28;20249;-72
2024/04/06 09:44:27;;;;;;;1.73;1.07;;;;;;;19.20;100.00;101048.78;5050426;28;20199;-72
2024/04/06 09:46:53;;;;;;;1.67;1.20;;;;;;;19.28;100.00;101039.69;5044047;28;20220;-72
2024/04/06 09:49:20;;;;;;;2.73;0.73;;;;;;;19.37;100.00;101047.41;5052444;28;20191;-72
2024/04/06 09:51:47;;;;;;;2.77;1.10;;;;;;;19.47;100.00;101055.53;5030384;28;20203;-73
2024/04/06 09:54:13;;;;;;;0.80;0.80;;;;;;;19.51;100.00;101056.28;5047860;28;20202;-73
2024/04/06 09:56:39;;;;;;;2.27;1.10;;;;;;;19.55;100.00;101056.34;5043563;28;20269;-73
2024/04/06 09:59:06;;;;;;;1.87;0.90;;;;;;;19.59;100.00;101052.53;5046417;28;20198;-72
2024/04/06 10:01:33;;;;;;;1.60;0.90;;;;;;;19.69;100.00;101038.41;5044008;28;20484;-72
2024/04/06 10:03:58;;;;;;;1.63;0.97;;;;;;;19.82;100.00;101039.63;5044502;28;20191;-73
2024/04/06 10:06:28;;;;;;;1.33;0.80;;;;;;;19.93;100.00;101037.75;5045770;28;20229;-73
2024/04/06 10:08:57;;;;;;;2.03;1.10;;;;;;;20.08;100.00;101036.69;5046543;28;20203;-72
2024/04/06 10:11:27;;;;;;;1.60;0.73;;;;;;;20.21;100.00;101029.06;5045994;28;20769;-74
2024/04/06 10:13:53;;;;;;;2.30;0.90;;;;;;;20.29;100.00;101031.38;5045883;28;20206;-72
2024/04/06 10:16:23;;;;;;;2.83;1.10;;;;;;;20.34;100.00;101035.63;5047096;28;20211;-72
2024/04/06 10:18:48;;;;;;;1.17;0.70;;;;;;;20.38;100.00;101033.75;5044628;28;20195;-72
2024/04/06 10:21:16;;;;;;;1.20;0.70;;;;;;;20.43;100.00;101025.31;5048267;28;20213;-72
2024/04/06 10:23:45;;;;;;;1.33;0.73;;;;;;;20.50;100.00;101017.28;5051820;28;20491;-72
2024/04/06 10:26:14;;;;;;;1.27;0.83;;;;;;;20.54;100.00;101018.81;5046489;28;20288;-72
2024/04/06 10:28:40;;;;;;;2.10;0.93;;;;;;;20.61;100.00;101031.47;5046843;28;20274;-72
2024/04/06 10:31:07;;;;;;;1.33;0.70;;;;;;;20.59;100.00;101028.41;5045378;28;20197;-72
2024/04/06 10:33:36;;;;;;;4.03;0.80;;;;;;;20.56;100.00;101029.94;5045373;28;20566;-72
2024/04/06 10:36:03;;;;;;;1.20;0.60;;;;;;;20.58;100.00;101019.56;5043211;28;20261;-72
2024/04/06 10:38:29;;;;;;;0.82;0.70;;;;;;;20.59;100.00;101018.44;5046164;28;20206;-73
2024/04/06 10:40:55;;;;;;;2.22;0.70;;;;;;;20.63;100.00;101021.09;5043536;28;20218;-73
2024/04/06 10:43:20;;;;;;;1.80;0.85;;;;;;;20.67;100.00;101017.28;5049003;28;20224;-72
2024/04/06 10:45:52;;;;;;;1.00;0.70;;;;;;;20.72;100.00;101016.91;5049180;28;20229;-73
2024/04/06 10:48:18;;;;;;;2.30;0.90;;;;;;;20.73;100.00;101018.44;5047171;28;20592;-73
2024/04/06 10:50:46;;;;;;;2.40;0.80;;;;;;;20.70;100.00;101023.81;5041875;28;20196;-72
2024/04/06 10:53:12;;;;;;;1.77;0.80;;;;;;;20.67;100.00;101021.88;5047765;28;20196;-73
2024/04/06 10:55:38;;;;;;;1.70;0.65;;;;;;;20.64;100.00;101017.31;5046806;28;20229;-71
2024/04/06 10:58:04;;;;;;;1.23;0.70;;;;;;;20.60;100.00;101005.78;5045315;28;20207;-74
2024/04/06 11:00:31;;;;;;;0.73;0.60;;;;;;;20.53;92.63;101003.84;5044823;28;20208;-73
2024/04/06 11:03:00;;;;;;;1.33;0.87;;;;;;;20.47;100.00;101008.06;5041554;28;20282;-72
2024/04/06 11:05:26;;;;;;;3.80;0.70;;;;;;;20.47;93.85;101010.75;5046801;28;20246;-72
2024/04/06 11:07:53;;;;;;;0.87;0.60;;;;;;;20.49;97.65;101005.75;5044913;28;20270;-72
2024/04/06 11:10:19;;;;;;;1.57;0.80;;;;;;;20.54;97.26;101005.38;5045486;28;20194;-72
2024/04/06 11:12:45;;;;;;;1.50;0.93;;;;;;;20.61;87.76;101004.63;5030634;28;20445;-72